sensor_id;sensor_type;location;lat;lon;timestamp;temperature;humidity
16700;DHT22;8466;52.286;21.124;2024-01-15T00:00:27;1.40;99.90
16700;DHT22;8466;52.286;21.124;2024-01-15T00:02:56;1.40;99.90
16700;DHT22;8466;52.286;21.124;2024-01-15T00:05:25;1.40;99.90
16700;DHT22;8466;52.286;21.124;2024-01-15T00:07:53;1.40;99.90
16700;DHT22;8466;52.286;21.124;2024-01-15T00:10:22;1.40;99.90
16700;DHT22;8466;52.286;21.124;2024-01-15T00:12:52;1.40;99.90
16700;DHT22;8466;52.286;21.124;2024-01-15T00:15:21;1.50;99.90
16700;DHT22;8466;52.286;21.124;2024-01-15T00:17:50;1.50;99.90
16700;DHT22;8466;52.286;21.124;2024-01-15T00:20:18;1.40;99.90
16700;DHT22;8466;52.286;21.124;2024-01-15T00:22:47;1.50;99.90
16700;DHT22;8466;52.286;21.124;2024-01-15T00:25:16;1.50;99.90
16700;DHT22;8466;52.286;21.124;2024-01-15T00:27:45;1.50;99.90
16700;DHT22;8466;52.286;21.124;2024-01-15T00:30:15;1.50;99.90
16700;DHT22;8466;52.286;21.124;2024-01-15T00:32:44;1.50;99.90
16700;DHT22;8466;52.286;21.124;2024-01-15T00:35:13;1.50;99.90
16700;DHT22;8466;52.286;21.124;2024-01-15T00:37:42;1.50;99.90
16700;DHT22;8466;52.286;21.124;2024-01-15T00:40:10;1.50;99.90
16700;DHT22;8466;52.286;21.124;2024-01-15T00:42:39;1.50;99.90
16700;DHT22;8466;52.286;21.124;2024-01-15T00:45:08;1.50;99.90
16700;DHT22;8466;52.286;21.124;2024-01-15T00:47:39;1.50;99.90
16700;DHT22;8466;52.286;21.124;2024-01-15T00:50:08;1.50;99.90
16700;DHT22;8466;52.286;21.124;2024-01-15T00:52:37;1.50;99.90
16700;DHT22;8466;52.286;21.124;2024-01-15T00:55:06;1.50;99.90
16700;DHT22;8466;52.286;21.124;2024-01-15T00:57:35;1.40;99.90
16700;DHT22;8466;52.286;21.124;2024-01-15T01:00:05;1.40;99.90
16700;DHT22;8466;52.286;21.124;2024-01-15T01:02:36;1.40;99.90
16700;DHT22;8466;52.286;21.124;2024-01-15T01:05:06;1.40;99.90
16700;DHT22;8466;52.286;21.124;2024-01-15T01:07:35;1.40;99.90
16700;DHT22;8466;52.286;21.124;2024-01-15T01:10:04;1.40;99.90
16700;DHT22;8466;52.286;21.124;2024-01-15T01:12:33;1.40;99.90
16700;DHT22;8466;52.286;21.124;2024-01-15T01:15:02;1.40;99.90
16700;DHT22;8466;52.286;21.124;2024-01-15T01:17:32;1.40;99.90
16700;DHT22;8466;52.286;21.124;2024-01-15T01:20:01;1.40;99.90
16700;DHT22;8466;52.286;21.124;2024-01-15T01:22:33;1.40;99.90
16700;DHT22;8466;52.286;21.124;2024-01-15T01:25:02;1.40;99.90
16700;DHT22;8466;52.286;21.124;2024-01-15T01:27:31;1.40;99.90
16700;DHT22;8466;52.286;21.124;2024-01-15T01:29:59;1.40;99.90
16700;DHT22;8466;52.286;21.124;2024-01-15T01:32:28;1.40;99.90
16700;DHT22;8466;52.286;21.124;2024-01-15T01:34:56;1.50;99.90
16700;DHT22;8466;52.286;21.124;2024-01-15T01:37:25;1.40;99.90
16700;DHT22;8466;52.286;21.124;2024-01-15T01:39:55;1.40;99.90
16700;DHT22;8466;52.286;21.124;2024-01-15T01:42:24;1.40;99.90
16700;DHT22;8466;52.286;21.124;2024-01-15T01:44:52;1.40;99.90
16700;DHT22;8466;52.286;21.124;2024-01-15T01:47:21;1.40;99.90
16700;DHT22;8466;52.286;21.124;2024-01-15T01:49:50;1.40;99.90
16700;DHT22;8466;52.286;21.124;2024-01-15T01:52:19;1.40;99.90
16700;DHT22;8466;52.286;21.124;2024-01-15T01:54:47;1.30;99.90
16700;DHT22;8466;52.286;21.124;2024-01-15T01:57:18;1.30;99.90
16700;DHT22;8466;52.286;21.124;2024-01-15T01:59:48;1.30;99.90
16700;DHT22;8466;52.286;21.124;2024-01-15T02:02:16;1.40;99.90
16700;DHT22;8466;52.286;21.124;2024-01-15T02:04:47;1.40;99.90
16700;DHT22;8466;52.286;21.124;2024-01-15T02:07:16;1.30;99.90
16700;DHT22;8466;52.286;21.124;2024-01-15T02:09:45;1.30;99.90
16700;DHT22;8466;52.286;21.124;2024-01-15T02:12:14;1.30;99.90
16700;DHT22;8466;52.286;21.124;2024-01-15T02:14:45;1.30;99.90
16700;DHT22;8466;52.286;21.124;2024-01-15T02:17:13;1.30;99.90
16700;DHT22;8466;52.286;21.124;2024-01-15T02:19:42;1.30;99.90
16700;DHT22;8466;52.286;21.124;2024-01-15T02:22:11;1.30;99.90
16700;DHT22;8466;52.286;21.124;2024-01-15T02:24:41;1.30;99.90
16700;DHT22;8466;52.286;21.124;2024-01-15T02:27:10;1.30;99.90
16700;DHT22;8466;52.286;21.124;2024-01-15T02:29:39;1.30;99.90
16700;DHT22;8466;52.286;21.124;2024-01-15T02:32:09;1.30;99.90
16700;DHT22;8466;52.286;21.124;2024-01-15T02:34:37;1.30;99.90
16700;DHT22;8466;52.286;21.124;2024-01-15T02:37:06;1.30;99.90
16700;DHT22;8466;52.286;21.124;2024-01-15T02:39:35;1.30;99.90
16700;DHT22;8466;52.286;21.124;2024-01-15T02:42:06;1.30;99.90
16700;DHT22;8466;52.286;21.124;2024-01-15T02:44:34;1.30;99.90
16700;DHT22;8466;52.286;21.124;2024-01-15T02:47:03;1.40;99.90
16700;DHT22;8466;52.286;21.124;2024-01-15T02:49:32;1.30;99.90
16700;DHT22;8466;52.286;21.124;2024-01-15T02:52:01;1.40;99.90
16700;DHT22;8466;52.286;21.124;2024-01-15T02:54:30;1.40;99.90
16700;DHT22;8466;52.286;21.124;2024-01-15T02:56:59;1.40;99.90
16700;DHT22;8466;52.286;21.124;2024-01-15T02:59:29;1.40;99.90
16700;DHT22;8466;52.286;21.124;2024-01-15T03:01:57;1.40;99.90
16700;DHT22;8466;52.286;21.124;2024-01-15T03:04:26;1.40;99.90
16700;DHT22;8466;52.286;21.124;2024-01-15T03:06:55;1.40;99.90
16700;DHT22;8466;52.286;21.124;2024-01-15T03:09:24;1.40;99.90
16700;DHT22;8466;52.286;21.124;2024-01-15T03:11:53;1.40;99.90
16700;DHT22;8466;52.286;21.124;2024-01-15T03:14:21;1.30;99.90
16700;DHT22;8466;52.286;21.124;2024-01-15T03:16:53;1.30;99.90
16700;DHT22;8466;52.286;21.124;2024-01-15T03:19:22;1.30;99.90
16700;DHT22;8466;52.286;21.124;2024-01-15T03:21:50;1.30;99.90
16700;DHT22;8466;52.286;21.124;2024-01-15T03:24:19;1.30;99.90
16700;DHT22;8466;52.286;21.124;2024-01-15T03:26:48;1.30;99.90
16700;DHT22;8466;52.286;21.124;2024-01-15T03:29:17;1.30;99.90
16700;DHT22;8466;52.286;21.124;2024-01-15T03:31:45;1.30;99.90
16700;DHT22;8466;52.286;21.124;2024-01-15T03:34:15;1.20;99.90
16700;DHT22;8466;52.286;21.124;2024-01-15T03:36:44;1.20;99.90
16700;DHT22;8466;52.286;21.124;2024-01-15T03:39:13;1.20;99.90
16700;DHT22;8466;52.286;21.124;2024-01-15T03:41:42;1.20;99.90
16700;DHT22;8466;52.286;21.124;2024-01-15T03:44:10;1.20;99.90
16700;DHT22;8466;52.286;21.124;2024-01-15T03:46:39;1.20;99.90
16700;DHT22;8466;52.286;21.124;2024-01-15T03:49:08;1.10;99.90
16700;DHT22;8466;52.286;21.124;2024-01-15T03:51:40;1.10;99.90
16700;DHT22;8466;52.286;21.124;2024-01-15T03:54:08;1.00;99.90
16700;DHT22;8466;52.286;21.124;2024-01-15T03:56:37;1.10;99.90
16700;DHT22;8466;52.286;21.124;2024-01-15T03:59:05;1.10;99.90
16700;DHT22;8466;52.286;21.124;2024-01-15T04:01:34;1.10;99.90
16700;DHT22;8466;52.286;21.124;2024-01-15T04:04:03;1.10;99.90
16700;DHT22;8466;52.286;21.124;2024-01-15T04:06:32;1.10;99.90
16700;DHT22;8466;52.286;21.124;2024-01-15T04:09:02;1.10;99.90
16700;DHT22;8466;52.286;21.124;2024-01-15T04:11:31;1.20;99.90
16700;DHT22;8466;52.286;21.124;2024-01-15T04:14:00;1.20;99.90
16700;DHT22;8466;52.286;21.124;2024-01-15T04:16:28;1.10;99.90
16700;DHT22;8466;52.286;21.124;2024-01-15T04:18:57;1.10;99.90
16700;DHT22;8466;52.286;21.124;2024-01-15T04:21:26;1.10;99.90
16700;DHT22;8466;52.286;21.124;2024-01-15T04:23:55;1.10;99.90
16700;DHT22;8466;52.286;21.124;2024-01-15T04:26:25;1.10;99.90
16700;DHT22;8466;52.286;21.124;2024-01-15T04:28:53;1.10;99.90
16700;DHT22;8466;52.286;21.124;2024-01-15T04:31:23;1.10;99.90
16700;DHT22;8466;52.286;21.124;2024-01-15T04:33:52;1.20;99.90
16700;DHT22;8466;52.286;21.124;2024-01-15T04:36:22;1.20;99.90
16700;DHT22;8466;52.286;21.124;2024-01-15T04:38:50;1.20;99.90
16700;DHT22;8466;52.286;21.124;2024-01-15T04:41:19;1.20;99.90
16700;DHT22;8466;52.286;21.124;2024-01-15T04:43:49;1.10;99.90
16700;DHT22;8466;52.286;21.124;2024-01-15T04:46:18;1.20;99.90
16700;DHT22;8466;52.286;21.124;2024-01-15T04:48:47;1.20;99.90
16700;DHT22;8466;52.286;21.124;2024-01-15T04:51:16;1.20;99.90
16700;DHT22;8466;52.286;21.124;2024-01-15T04:53:44;1.20;99.90
16700;DHT22;8466;52.286;21.124;2024-01-15T04:56:13;1.20;99.90
16700;DHT22;8466;52.286;21.124;2024-01-15T04:58:42;1.30;99.90
16700;DHT22;8466;52.286;21.124;2024-01-15T05:01:12;1.20;99.90
16700;DHT22;8466;52.286;21.124;2024-01-15T05:03:41;1.20;99.90
16700;DHT22;8466;52.286;21.124;2024-01-15T05:06:09;1.20;99.90
16700;DHT22;8466;52.286;21.124;2024-01-15T05:08:38;1.30;99.90
16700;DHT22;8466;52.286;21.124;2024-01-15T05:11:07;1.30;99.90
16700;DHT22;8466;52.286;21.124;2024-01-15T05:13:38;1.30;99.90
16700;DHT22;8466;52.286;21.124;2024-01-15T05:16:06;1.30;99.90
16700;DHT22;8466;52.286;21.124;2024-01-15T05:18:38;1.30;99.90
16700;DHT22;8466;52.286;21.124;2024-01-15T05:21:09;1.30;99.90
16700;DHT22;8466;52.286;21.124;2024-01-15T05:23:38;1.30;99.90
16700;DHT22;8466;52.286;21.124;2024-01-15T05:26:07;1.30;99.90
16700;DHT22;8466;52.286;21.124;2024-01-15T05:28:36;1.30;99.90
16700;DHT22;8466;52.286;21.124;2024-01-15T05:31:04;1.30;99.90
16700;DHT22;8466;52.286;21.124;2024-01-15T05:33:33;1.40;99.90
16700;DHT22;8466;52.286;21.124;2024-01-15T05:36:05;1.30;99.90
16700;DHT22;8466;52.286;21.124;2024-01-15T05:38:34;1.30;99.90
16700;DHT22;8466;52.286;21.124;2024-01-15T05:41:03;1.30;99.90
16700;DHT22;8466;52.286;21.124;2024-01-15T05:43:32;1.30;99.90
16700;DHT22;8466;52.286;21.124;2024-01-15T05:46:01;1.30;99.90
16700;DHT22;8466;52.286;21.124;2024-01-15T05:48:30;1.30;99.90
16700;DHT22;8466;52.286;21.124;2024-01-15T05:50:59;1.40;99.90
16700;DHT22;8466;52.286;21.124;2024-01-15T05:53:30;1.30;99.90
16700;DHT22;8466;52.286;21.124;2024-01-15T05:56:03;1.40;99.90
16700;DHT22;8466;52.286;21.124;2024-01-15T05:58:33;1.40;99.90
16700;DHT22;8466;52.286;21.124;2024-01-15T06:01:02;1.30;99.90
16700;DHT22;8466;52.286;21.124;2024-01-15T06:03:33;1.30;99.90
16700;DHT22;8466;52.286;21.124;2024-01-15T06:06:03;1.40;99.90
16700;DHT22;8466;52.286;21.124;2024-01-15T06:08:33;1.30;99.90
16700;DHT22;8466;52.286;21.124;2024-01-15T06:11:03;1.40;99.90
16700;DHT22;8466;52.286;21.124;2024-01-15T06:13:32;1.40;99.90
16700;DHT22;8466;52.286;21.124;2024-01-15T06:16:01;1.40;99.90
16700;DHT22;8466;52.286;21.124;2024-01-15T06:18:32;1.30;99.90
16700;DHT22;8466;52.286;21.124;2024-01-15T06:21:05;1.30;99.90
16700;DHT22;8466;52.286;21.124;2024-01-15T06:23:35;1.30;99.90
16700;DHT22;8466;52.286;21.124;2024-01-15T06:26:04;1.30;99.90
16700;DHT22;8466;52.286;21.124;2024-01-15T06:28:33;1.40;99.90
16700;DHT22;8466;52.286;21.124;2024-01-15T06:31:02;1.40;99.90
16700;DHT22;8466;52.286;21.124;2024-01-15T06:33:38;1.40;99.90
16700;DHT22;8466;52.286;21.124;2024-01-15T06:36:08;1.40;99.90
16700;DHT22;8466;52.286;21.124;2024-01-15T06:38:39;1.30;99.90
16700;DHT22;8466;52.286;21.124;2024-01-15T06:41:08;1.40;99.90
16700;DHT22;8466;52.286;21.124;2024-01-15T06:43:37;1.40;99.90
16700;DHT22;8466;52.286;21.124;2024-01-15T06:46:09;1.40;99.90
16700;DHT22;8466;52.286;21.124;2024-01-15T06:48:38;1.30;99.90
16700;DHT22;8466;52.286;21.124;2024-01-15T06:51:07;1.30;99.90
16700;DHT22;8466;52.286;21.124;2024-01-15T06:53:36;1.40;99.90
16700;DHT22;8466;52.286;21.124;2024-01-15T06:56:06;1.40;99.90
16700;DHT22;8466;52.286;21.124;2024-01-15T06:58:35;1.30;99.90
16700;DHT22;8466;52.286;21.124;2024-01-15T07:01:04;1.30;99.90
16700;DHT22;8466;52.286;21.124;2024-01-15T07:03:33;1.40;99.90
16700;DHT22;8466;52.286;21.124;2024-01-15T07:06:03;1.30;99.90
16700;DHT22;8466;52.286;21.124;2024-01-15T07:08:31;1.40;99.90
16700;DHT22;8466;52.286;21.124;2024-01-15T07:11:03;1.40;99.90
16700;DHT22;8466;52.286;21.124;2024-01-15T07:13:34;1.40;99.90
16700;DHT22;8466;52.286;21.124;2024-01-15T07:16:03;1.40;99.90
16700;DHT22;8466;52.286;21.124;2024-01-15T07:18:32;1.40;99.90
16700;DHT22;8466;52.286;21.124;2024-01-15T07:21:01;1.30;99.90
16700;DHT22;8466;52.286;21.124;2024-01-15T07:23:31;1.40;99.90
16700;DHT22;8466;52.286;21.124;2024-01-15T07:26:00;1.30;99.90
16700;DHT22;8466;52.286;21.124;2024-01-15T07:28:29;1.40;99.90
16700;DHT22;8466;52.286;21.124;2024-01-15T07:31:00;1.40;99.90
16700;DHT22;8466;52.286;21.124;2024-01-15T07:33:30;1.40;99.90
16700;DHT22;8466;52.286;21.124;2024-01-15T07:35:59;1.40;99.90
16700;DHT22;8466;52.286;21.124;2024-01-15T07:38:30;1.30;99.90
16700;DHT22;8466;52.286;21.124;2024-01-15T07:40:58;1.30;99.90
16700;DHT22;8466;52.286;21.124;2024-01-15T07:43:27;1.30;99.90
16700;DHT22;8466;52.286;21.124;2024-01-15T07:45:56;1.30;99.90
16700;DHT22;8466;52.286;21.124;2024-01-15T07:48:27;1.30;99.90
16700;DHT22;8466;52.286;21.124;2024-01-15T07:50:56;1.30;99.90
16700;DHT22;8466;52.286;21.124;2024-01-15T07:53:25;1.30;99.90
16700;DHT22;8466;52.286;21.124;2024-01-15T07:55:55;1.30;99.90
16700;DHT22;8466;52.286;21.124;2024-01-15T07:58:23;1.30;99.90
16700;DHT22;8466;52.286;21.124;2024-01-15T08:00:52;1.30;99.90
16700;DHT22;8466;52.286;21.124;2024-01-15T08:03:21;1.30;99.90
16700;DHT22;8466;52.286;21.124;2024-01-15T08:05:51;1.30;99.90
16700;DHT22;8466;52.286;21.124;2024-01-15T08:08:21;1.30;99.90
16700;DHT22;8466;52.286;21.124;2024-01-15T08:10:50;1.30;99.90
16700;DHT22;8466;52.286;21.124;2024-01-15T08:13:19;1.40;99.90
16700;DHT22;8466;52.286;21.124;2024-01-15T08:15:47;1.40;99.90
16700;DHT22;8466;52.286;21.124;2024-01-15T08:18:17;1.40;99.90
16700;DHT22;8466;52.286;21.124;2024-01-15T08:20:48;1.40;99.90
16700;DHT22;8466;52.286;21.124;2024-01-15T08:23:20;1.40;99.90
16700;DHT22;8466;52.286;21.124;2024-01-15T08:25:49;1.40;99.90
16700;DHT22;8466;52.286;21.124;2024-01-15T08:28:21;1.40;99.90
16700;DHT22;8466;52.286;21.124;2024-01-15T08:30:50;1.50;99.90
16700;DHT22;8466;52.286;21.124;2024-01-15T08:33:19;1.40;99.90
16700;DHT22;8466;52.286;21.124;2024-01-15T08:35:48;1.60;99.90
16700;DHT22;8466;52.286;21.124;2024-01-15T08:38:20;1.70;99.90
16700;DHT22;8466;52.286;21.124;2024-01-15T08:40:49;1.80;99.90
16700;DHT22;8466;52.286;21.124;2024-01-15T08:43:19;1.90;99.90
16700;DHT22;8466;52.286;21.124;2024-01-15T08:45:48;2.00;99.90
16700;DHT22;8466;52.286;21.124;2024-01-15T08:48:17;2.10;99.90
16700;DHT22;8466;52.286;21.124;2024-01-15T08:50:46;2.10;99.90
16700;DHT22;8466;52.286;21.124;2024-01-15T08:53:17;2.20;99.90
16700;DHT22;8466;52.286;21.124;2024-01-15T08:55:50;2.00;99.90
16700;DHT22;8466;52.286;21.124;2024-01-15T08:58:23;2.10;99.90
16700;DHT22;8466;52.286;21.124;2024-01-15T09:00:52;1.90;99.90
16700;DHT22;8466;52.286;21.124;2024-01-15T09:03:21;1.80;99.90
16700;DHT22;8466;52.286;21.124;2024-01-15T09:05:52;1.90;99.90
16700;DHT22;8466;52.286;21.124;2024-01-15T09:08:22;1.90;99.90
16700;DHT22;8466;52.286;21.124;2024-01-15T09:11:00;1.90;99.90
16700;DHT22;8466;52.286;21.124;2024-01-15T09:13:33;1.90;99.90
16700;DHT22;8466;52.286;21.124;2024-01-15T09:16:04;1.70;99.90
16700;DHT22;8466;52.286;21.124;2024-01-15T09:18:34;1.70;99.90
16700;DHT22;8466;52.286;21.124;2024-01-15T09:21:04;1.80;99.90
16700;DHT22;8466;52.286;21.124;2024-01-15T09:23:33;1.80;99.90
16700;DHT22;8466;52.286;21.124;2024-01-15T09:26:04;2.00;99.90
16700;DHT22;8466;52.286;21.124;2024-01-15T09:28:35;2.10;99.90
16700;DHT22;8466;52.286;21.124;2024-01-15T09:31:09;2.10;99.90
16700;DHT22;8466;52.286;21.124;2024-01-15T09:33:38;2.10;99.90
16700;DHT22;8466;52.286;21.124;2024-01-15T09:36:44;2.20;99.90
16700;DHT22;8466;52.286;21.124;2024-01-15T09:39:57;2.40;99.90
16700;DHT22;8466;52.286;21.124;2024-01-15T09:42:54;2.70;99.90
16700;DHT22;8466;52.286;21.124;2024-01-15T09:46:21;2.70;99.90
16700;DHT22;8466;52.286;21.124;2024-01-15T09:49:22;2.70;99.90
16700;DHT22;8466;52.286;21.124;2024-01-15T09:56:42;2.60;99.90
16700;DHT22;8466;52.286;21.124;2024-01-15T10:00:23;2.50;99.90
16700;DHT22;8466;52.286;21.124;2024-01-15T10:03:19;2.50;99.90
16700;DHT22;8466;52.286;21.124;2024-01-15T10:37:24;2.70;99.90
16700;DHT22;8466;52.286;21.124;2024-01-15T10:40:35;2.70;99.90
16700;DHT22;8466;52.286;21.124;2024-01-15T13:07:21;1.80;99.90
16700;DHT22;8466;52.286;21.124;2024-01-15T13:46:04;1.40;99.90
16700;DHT22;8466;52.286;21.124;2024-01-15T15:39:58;1.00;99.90
16700;DHT22;8466;52.286;21.124;2024-01-15T15:42:29;1.00;99.90
16700;DHT22;8466;52.286;21.124;2024-01-15T15:44:59;1.10;99.90
16700;DHT22;8466;52.286;21.124;2024-01-15T15:47:29;1.10;99.90
16700;DHT22;8466;52.286;21.124;2024-01-15T15:49:58;1.10;99.90
16700;DHT22;8466;52.286;21.124;2024-01-15T15:52:29;1.20;99.90
16700;DHT22;8466;52.286;21.124;2024-01-15T15:54:59;1.10;99.90
16700;DHT22;8466;52.286;21.124;2024-01-15T15:57:33;1.10;99.90
16700;DHT22;8466;52.286;21.124;2024-01-15T16:00:03;1.10;99.90
16700;DHT22;8466;52.286;21.124;2024-01-15T16:02:33;1.10;99.90
16700;DHT22;8466;52.286;21.124;2024-01-15T16:05:02;1.10;99.90
16700;DHT22;8466;52.286;21.124;2024-01-15T16:07:37;1.10;99.90
16700;DHT22;8466;52.286;21.124;2024-01-15T16:10:08;1.20;99.90
16700;DHT22;8466;52.286;21.124;2024-01-15T16:12:47;1.20;99.90
16700;DHT22;8466;52.286;21.124;2024-01-15T16:15:20;1.20;99.90
16700;DHT22;8466;52.286;21.124;2024-01-15T16:17:50;1.20;99.90
16700;DHT22;8466;52.286;21.124;2024-01-15T16:20:40;1.30;99.90
16700;DHT22;8466;52.286;21.124;2024-01-15T16:23:34;1.20;99.90
16700;DHT22;8466;52.286;21.124;2024-01-15T16:26:24;1.30;99.90
16700;DHT22;8466;52.286;21.124;2024-01-15T16:28:55;1.30;99.90
16700;DHT22;8466;52.286;21.124;2024-01-15T16:31:28;0.90;99.90
16700;DHT22;8466;52.286;21.124;2024-01-15T16:33:57;1.30;99.90
16700;DHT22;8466;52.286;21.124;2024-01-15T16:36:38;1.20;99.90
16700;DHT22;8466;52.286;21.124;2024-01-15T16:39:10;1.10;99.90
16700;DHT22;8466;52.286;21.124;2024-01-15T16:41:41;1.10;99.90
16700;DHT22;8466;52.286;21.124;2024-01-15T16:44:10;1.10;99.90
16700;DHT22;8466;52.286;21.124;2024-01-15T16:46:41;1.20;99.90
16700;DHT22;8466;52.286;21.124;2024-01-15T16:49:11;1.20;99.90
16700;DHT22;8466;52.286;21.124;2024-01-15T16:51:40;1.20;99.90
16700;DHT22;8466;52.286;21.124;2024-01-15T16:54:12;1.10;99.90
16700;DHT22;8466;52.286;21.124;2024-01-15T16:56:50;1.10;99.90
16700;DHT22;8466;52.286;21.124;2024-01-15T16:59:28;1.20;99.90
16700;DHT22;8466;52.286;21.124;2024-01-15T17:02:06;0.90;99.90
16700;DHT22;8466;52.286;21.124;2024-01-15T17:05:19;0.80;99.90
16700;DHT22;8466;52.286;21.124;2024-01-15T17:07:57;0.80;99.90
16700;DHT22;8466;52.286;21.124;2024-01-15T17:17:46;0.40;99.90
16700;DHT22;8466;52.286;21.124;2024-01-15T17:24:07;0.50;99.90
16700;DHT22;8466;52.286;21.124;2024-01-15T17:26:52;0.40;99.90
16700;DHT22;8466;52.286;21.124;2024-01-15T17:36:48;0.40;99.90
16700;DHT22;8466;52.286;21.124;2024-01-15T17:40:14;0.40;99.90
16700;DHT22;8466;52.286;21.124;2024-01-15T17:43:05;0.40;99.90
16700;DHT22;8466;52.286;21.124;2024-01-15T17:45:51;0.40;99.90
16700;DHT22;8466;52.286;21.124;2024-01-15T17:48:30;0.40;99.90
16700;DHT22;8466;52.286;21.124;2024-01-15T17:51:05;0.40;99.90
16700;DHT22;8466;52.286;21.124;2024-01-15T17:53:42;0.40;99.90
16700;DHT22;8466;52.286;21.124;2024-01-15T17:56:15;0.40;99.90
16700;DHT22;8466;52.286;21.124;2024-01-15T17:58:45;0.40;99.90
16700;DHT22;8466;52.286;21.124;2024-01-15T18:01:20;0.40;99.90
16700;DHT22;8466;52.286;21.124;2024-01-15T18:03:54;0.40;99.90
16700;DHT22;8466;52.286;21.124;2024-01-15T18:06:37;0.40;99.90
16700;DHT22;8466;52.286;21.124;2024-01-15T18:09:09;0.50;99.90
16700;DHT22;8466;52.286;21.124;2024-01-15T18:11:39;0.50;99.90
16700;DHT22;8466;52.286;21.124;2024-01-15T18:14:14;0.50;99.90
16700;DHT22;8466;52.286;21.124;2024-01-15T18:16:43;0.50;99.90
16700;DHT22;8466;52.286;21.124;2024-01-15T18:19:15;0.50;99.90
16700;DHT22;8466;52.286;21.124;2024-01-15T18:21:45;0.50;99.90
16700;DHT22;8466;52.286;21.124;2024-01-15T18:24:16;0.50;99.90
16700;DHT22;8466;52.286;21.124;2024-01-15T18:26:53;0.50;99.90
16700;DHT22;8466;52.286;21.124;2024-01-15T18:29:32;0.50;99.90
16700;DHT22;8466;52.286;21.124;2024-01-15T18:32:02;0.60;99.90
16700;DHT22;8466;52.286;21.124;2024-01-15T18:34:31;0.60;99.90
16700;DHT22;8466;52.286;21.124;2024-01-15T18:37:00;0.60;99.90
16700;DHT22;8466;52.286;21.124;2024-01-15T18:39:31;0.50;99.90
16700;DHT22;8466;52.286;21.124;2024-01-15T18:42:00;0.50;99.90
16700;DHT22;8466;52.286;21.124;2024-01-15T18:44:29;0.50;99.90
16700;DHT22;8466;52.286;21.124;2024-01-15T18:46:57;0.40;99.90
16700;DHT22;8466;52.286;21.124;2024-01-15T18:49:28;0.30;99.90
16700;DHT22;8466;52.286;21.124;2024-01-15T18:52:13;0.20;99.90
16700;DHT22;8466;52.286;21.124;2024-01-15T18:54:51;0.00;99.90
16700;DHT22;8466;52.286;21.124;2024-01-15T18:57:20;-0.10;99.90
16700;DHT22;8466;52.286;21.124;2024-01-15T18:59:49;-0.20;99.90
16700;DHT22;8466;52.286;21.124;2024-01-15T19:02:19;-0.20;99.90
16700;DHT22;8466;52.286;21.124;2024-01-15T19:04:48;-0.30;99.90
16700;DHT22;8466;52.286;21.124;2024-01-15T19:07:18;-0.30;99.90
16700;DHT22;8466;52.286;21.124;2024-01-15T19:09:46;-0.40;99.90
16700;DHT22;8466;52.286;21.124;2024-01-15T19:12:17;-0.40;99.90
16700;DHT22;8466;52.286;21.124;2024-01-15T19:14:49;-0.50;99.90
16700;DHT22;8466;52.286;21.124;2024-01-15T19:17:19;-0.50;99.90
16700;DHT22;8466;52.286;21.124;2024-01-15T19:19:49;-0.70;99.90
16700;DHT22;8466;52.286;21.124;2024-01-15T19:22:18;-0.50;99.90
16700;DHT22;8466;52.286;21.124;2024-01-15T19:24:47;-0.70;99.90
16700;DHT22;8466;52.286;21.124;2024-01-15T19:27:17;-0.80;99.90
16700;DHT22;8466;52.286;21.124;2024-01-15T19:29:46;-0.90;99.90
16700;DHT22;8466;52.286;21.124;2024-01-15T19:32:17;-1.00;99.90
16700;DHT22;8466;52.286;21.124;2024-01-15T19:34:46;-1.10;99.90
16700;DHT22;8466;52.286;21.124;2024-01-15T19:37:15;-1.00;99.90
16700;DHT22;8466;52.286;21.124;2024-01-15T19:39:48;-1.10;99.90
16700;DHT22;8466;52.286;21.124;2024-01-15T19:42:21;-1.20;99.90
16700;DHT22;8466;52.286;21.124;2024-01-15T19:44:57;-1.30;99.90
16700;DHT22;8466;52.286;21.124;2024-01-15T19:47:26;-1.30;99.90
16700;DHT22;8466;52.286;21.124;2024-01-15T19:49:56;-1.20;99.90
16700;DHT22;8466;52.286;21.124;2024-01-15T19:52:25;-1.10;99.90
16700;DHT22;8466;52.286;21.124;2024-01-15T19:54:54;-1.00;99.90
16700;DHT22;8466;52.286;21.124;2024-01-15T19:57:25;-1.00;99.90
16700;DHT22;8466;52.286;21.124;2024-01-15T19:59:53;-1.00;99.90
16700;DHT22;8466;52.286;21.124;2024-01-15T20:02:22;-1.00;99.90
16700;DHT22;8466;52.286;21.124;2024-01-15T20:04:51;-0.90;99.90
16700;DHT22;8466;52.286;21.124;2024-01-15T20:07:20;-0.90;99.90
16700;DHT22;8466;52.286;21.124;2024-01-15T20:09:49;-0.80;99.90
16700;DHT22;8466;52.286;21.124;2024-01-15T20:12:24;-0.70;99.90
16700;DHT22;8466;52.286;21.124;2024-01-15T20:14:56;-0.70;99.90
16700;DHT22;8466;52.286;21.124;2024-01-15T20:17:24;-0.70;99.90
16700;DHT22;8466;52.286;21.124;2024-01-15T20:19:54;-0.80;99.90
16700;DHT22;8466;52.286;21.124;2024-01-15T20:22:24;-0.80;99.90
16700;DHT22;8466;52.286;21.124;2024-01-15T20:24:53;-0.90;99.90
16700;DHT22;8466;52.286;21.124;2024-01-15T20:27:22;-1.00;99.90
16700;DHT22;8466;52.286;21.124;2024-01-15T20:29:50;-1.10;99.90
16700;DHT22;8466;52.286;21.124;2024-01-15T20:32:20;-1.10;99.90
16700;DHT22;8466;52.286;21.124;2024-01-15T20:34:49;-1.20;99.90
16700;DHT22;8466;52.286;21.124;2024-01-15T20:37:18;-1.10;99.90
16700;DHT22;8466;52.286;21.124;2024-01-15T20:39:48;-1.00;99.90
16700;DHT22;8466;52.286;21.124;2024-01-15T20:42:17;-1.00;99.90
16700;DHT22;8466;52.286;21.124;2024-01-15T20:44:46;-1.00;99.90
16700;DHT22;8466;52.286;21.124;2024-01-15T20:47:14;-1.00;99.90
16700;DHT22;8466;52.286;21.124;2024-01-15T20:49:48;-1.00;99.90
16700;DHT22;8466;52.286;21.124;2024-01-15T20:52:19;-0.90;99.90
16700;DHT22;8466;52.286;21.124;2024-01-15T20:54:52;-0.90;99.90
16700;DHT22;8466;52.286;21.124;2024-01-15T20:57:20;-1.00;99.90
16700;DHT22;8466;52.286;21.124;2024-01-15T20:59:49;-1.00;99.90
16700;DHT22;8466;52.286;21.124;2024-01-15T21:02:18;-1.00;99.90
16700;DHT22;8466;52.286;21.124;2024-01-15T21:04:50;-1.10;99.90
16700;DHT22;8466;52.286;21.124;2024-01-15T21:07:18;-1.20;99.90
16700;DHT22;8466;52.286;21.124;2024-01-15T21:09:47;-1.10;99.90
16700;DHT22;8466;52.286;21.124;2024-01-15T21:12:16;-1.20;99.90
16700;DHT22;8466;52.286;21.124;2024-01-15T21:14:45;-1.20;99.90
16700;DHT22;8466;52.286;21.124;2024-01-15T21:17:13;-1.20;99.90
16700;DHT22;8466;52.286;21.124;2024-01-15T21:19:42;-1.10;99.90
16700;DHT22;8466;52.286;21.124;2024-01-15T21:22:12;-1.10;99.90
16700;DHT22;8466;52.286;21.124;2024-01-15T21:24:41;-1.00;99.90
16700;DHT22;8466;52.286;21.124;2024-01-15T21:27:11;-1.00;99.90
16700;DHT22;8466;52.286;21.124;2024-01-15T21:29:41;-1.10;99.90
16700;DHT22;8466;52.286;21.124;2024-01-15T21:32:10;-1.00;99.90
16700;DHT22;8466;52.286;21.124;2024-01-15T21:34:39;-1.00;99.90
16700;DHT22;8466;52.286;21.124;2024-01-15T21:37:10;-1.10;99.90
16700;DHT22;8466;52.286;21.124;2024-01-15T21:39:41;-1.20;99.90
16700;DHT22;8466;52.286;21.124;2024-01-15T21:42:12;-1.20;99.90
16700;DHT22;8466;52.286;21.124;2024-01-15T21:44:42;-1.20;99.90
16700;DHT22;8466;52.286;21.124;2024-01-15T21:47:14;-1.10;99.90
16700;DHT22;8466;52.286;21.124;2024-01-15T21:49:43;-1.20;99.90
16700;DHT22;8466;52.286;21.124;2024-01-15T21:52:13;-1.10;99.90
16700;DHT22;8466;52.286;21.124;2024-01-15T21:54:43;-1.20;99.90